createdAt,value
2022-11-02T00:02:18.936Z,15.90
2022-11-02T00:04:45.712Z,16.00
2022-11-02T00:07:12.381Z,16.10
2022-11-02T00:09:39.013Z,16.00
2022-11-02T00:12:06.141Z,16.00
2022-11-02T00:14:32.754Z,16.00
2022-11-02T00:16:59.422Z,16.00
2022-11-02T00:19:26.072Z,16.00
2022-11-02T00:21:52.837Z,16.80
2022-11-02T00:24:19.465Z,16.10
2022-11-02T00:26:46.172Z,16.00
2022-11-02T00:29:12.791Z,16.00
2022-11-02T00:31:39.415Z,16.00
2022-11-02T00:34:06.111Z,16.10
2022-11-02T00:36:33.828Z,16.10
2022-11-02T00:39:00.534Z,16.10
2022-11-02T00:41:27.727Z,16.10
2022-11-02T00:43:54.430Z,16.10
2022-11-02T00:46:21.100Z,16.10
2022-11-02T00:48:47.795Z,16.10
2022-11-02T00:51:14.798Z,16.20
2022-11-02T00:53:42.870Z,16.10
2022-11-02T00:56:09.910Z,16.10
2022-11-02T00:58:36.973Z,16.20
2022-11-02T01:01:07.688Z,16.10
2022-11-02T01:03:36.056Z,16.10
2022-11-02T01:06:15.094Z,16.10
2022-11-02T01:08:42.007Z,16.10
2022-11-02T01:11:10.628Z,16.00
2022-11-02T01:13:37.256Z,16.10
2022-11-02T01:16:04.957Z,16.10
2022-11-02T01:18:31.702Z,16.10
2022-11-02T01:20:59.428Z,16.00
2022-11-02T01:23:26.233Z,15.90
2022-11-02T01:25:52.928Z,15.80
2022-11-02T01:28:19.587Z,15.60
2022-11-02T01:30:48.415Z,15.60
2022-11-02T01:33:15.067Z,15.40
2022-11-02T01:35:41.753Z,15.30
2022-11-02T01:38:08.405Z,15.40
2022-11-02T01:40:37.280Z,15.30
2022-11-02T01:43:22.023Z,15.20
2022-11-02T01:45:51.804Z,15.20
2022-11-02T01:48:26.652Z,15.10
2022-11-02T01:50:54.228Z,15.00
2022-11-02T01:53:20.925Z,15.00
2022-11-02T01:55:47.617Z,14.90
2022-11-02T01:58:14.289Z,14.90
2022-11-02T02:00:41.579Z,14.70
2022-11-02T02:03:11.200Z,14.60
2022-11-02T02:05:47.548Z,14.60
2022-11-02T02:08:21.744Z,14.60
2022-11-02T02:10:48.422Z,14.50
2022-11-02T02:13:16.401Z,14.40
2022-11-02T02:15:51.933Z,14.30
2022-11-02T02:18:44.662Z,14.40
2022-11-02T02:21:33.165Z,14.30
2022-11-02T02:24:31.894Z,14.30
2022-11-02T02:27:11.790Z,14.30
2022-11-02T02:30:01.969Z,14.20
2022-11-02T02:33:01.473Z,14.20
2022-11-02T02:35:41.916Z,14.20
2022-11-02T02:38:28.627Z,14.20
2022-11-02T02:41:14.420Z,14.20
2022-11-02T02:43:46.057Z,14.30
2022-11-02T02:46:16.638Z,14.30
2022-11-02T02:48:45.925Z,14.30
2022-11-02T02:51:19.606Z,14.30
2022-11-02T02:53:51.095Z,14.40
2022-11-02T02:56:23.314Z,14.30
2022-11-02T02:59:02.362Z,14.30
2022-11-02T03:01:29.370Z,14.30
2022-11-02T03:03:56.110Z,14.30
2022-11-02T03:06:27.526Z,14.30
2022-11-02T03:09:02.623Z,14.30
2022-11-02T03:11:30.969Z,14.40
2022-11-02T03:14:05.107Z,14.40
2022-11-02T03:17:09.839Z,14.40
2022-11-02T03:19:48.683Z,14.50
2022-11-02T03:22:34.866Z,14.50
2022-11-02T03:25:17.974Z,14.50
2022-11-02T03:28:06.397Z,14.50
2022-11-02T03:30:41.256Z,14.60
2022-11-02T03:33:17.102Z,14.60
2022-11-02T03:35:48.740Z,14.60
2022-11-02T03:38:24.986Z,14.60
2022-11-02T03:40:56.836Z,14.60
2022-11-02T03:43:25.664Z,14.60
2022-11-02T03:45:57.630Z,14.60
2022-11-02T03:48:34.807Z,14.60
2022-11-02T03:51:05.868Z,14.70
2022-11-02T03:53:51.376Z,15.50
2022-11-02T03:56:31.369Z,14.80
2022-11-02T03:58:58.668Z,14.70
2022-11-02T04:01:28.938Z,14.70
2022-11-02T04:03:56.707Z,14.70
2022-11-02T04:06:25.392Z,14.70
2022-11-02T04:08:52.709Z,14.70
2022-11-02T04:11:39.395Z,14.80
2022-11-02T04:14:29.796Z,14.80
2022-11-02T04:17:16.570Z,14.90
2022-11-02T04:19:50.189Z,15.00
2022-11-02T04:22:37.112Z,15.00
2022-11-02T04:25:15.957Z,14.90
2022-11-02T04:27:53.338Z,15.00
2022-11-02T04:30:25.046Z,15.00
2022-11-02T04:33:12.543Z,15.10
2022-11-02T04:35:52.284Z,15.10
2022-11-02T04:38:38.923Z,15.20
2022-11-02T04:41:25.394Z,15.20
2022-11-02T04:43:54.142Z,15.30
2022-11-02T04:46:22.036Z,15.30
2022-11-02T04:48:49.596Z,15.30
2022-11-02T04:51:16.480Z,15.30
2022-11-02T04:53:43.933Z,15.20
2022-11-02T04:56:11.200Z,15.30
2022-11-02T04:58:38.310Z,15.30
2022-11-02T05:01:12.364Z,15.30
2022-11-02T05:03:39.402Z,15.20
2022-11-02T05:06:07.813Z,15.30
2022-11-02T05:08:36.539Z,15.30
2022-11-02T05:11:03.284Z,15.20
2022-11-02T05:13:31.069Z,15.30
2022-11-02T05:15:59.980Z,15.20
2022-11-02T05:18:29.576Z,15.10
2022-11-02T05:20:58.561Z,15.10
2022-11-02T05:23:28.197Z,15.00
2022-11-02T05:26:00.552Z,15.00
2022-11-02T05:28:29.667Z,15.00
2022-11-02T05:31:00.430Z,14.80
2022-11-02T05:33:31.064Z,14.80
2022-11-02T05:36:00.907Z,14.80
2022-11-02T05:38:29.429Z,14.80
2022-11-02T05:40:58.790Z,14.80
2022-11-02T05:43:28.790Z,14.80
2022-11-02T05:46:01.710Z,14.70
2022-11-02T05:48:31.975Z,14.70
2022-11-02T05:51:00.177Z,14.70
2022-11-02T05:53:31.501Z,14.80
2022-11-02T05:56:00.005Z,14.70
2022-11-02T05:58:27.580Z,14.80
2022-11-02T06:00:54.736Z,14.80
2022-11-02T06:03:21.371Z,14.80
2022-11-02T06:05:48.055Z,14.80
2022-11-02T06:08:14.752Z,14.80
2022-11-02T06:10:43.194Z,14.90
2022-11-02T06:13:10.248Z,14.80
2022-11-02T06:15:36.900Z,14.90
2022-11-02T06:18:03.642Z,14.80
2022-11-02T06:20:30.317Z,14.90
2022-11-02T06:22:56.995Z,14.70
2022-11-02T06:25:23.666Z,14.80
2022-11-02T06:27:56.565Z,15.60
2022-11-02T06:30:27.001Z,14.70
2022-11-02T06:32:54.752Z,14.60
2022-11-02T06:35:23.011Z,14.70
2022-11-02T06:37:50.142Z,14.70
2022-11-02T06:40:18.360Z,14.70
2022-11-02T06:43:03.419Z,14.70
2022-11-02T06:45:34.246Z,14.70
2022-11-02T06:48:01.053Z,14.70
2022-11-02T06:50:27.899Z,14.70
2022-11-02T06:52:54.525Z,14.60
2022-11-02T06:55:21.158Z,14.60
2022-11-02T06:57:47.763Z,14.40
2022-11-02T07:00:20.869Z,14.60
2022-11-02T07:03:07.887Z,14.60
2022-11-02T07:05:35.768Z,14.60
2022-11-02T07:08:02.925Z,14.60
2022-11-02T07:10:30.233Z,14.70
2022-11-02T07:12:57.690Z,14.50
2022-11-02T07:15:26.011Z,14.50
2022-11-02T07:17:53.041Z,14.60
2022-11-02T07:20:20.334Z,14.60
2022-11-02T07:22:58.338Z,14.60
2022-11-02T07:25:27.126Z,14.60
2022-11-02T07:27:54.887Z,15.10
2022-11-02T07:30:21.929Z,14.70
2022-11-02T07:32:48.552Z,14.70
2022-11-02T07:35:17.459Z,14.70
2022-11-02T07:37:44.903Z,15.00
2022-11-02T07:40:14.264Z,14.90
2022-11-02T07:42:45.641Z,14.80
2022-11-02T07:45:12.381Z,14.80
2022-11-02T07:47:45.953Z,14.90
2022-11-02T07:50:14.626Z,14.90
2022-11-02T07:52:49.161Z,15.00
2022-11-02T07:55:17.483Z,14.90
2022-11-02T07:57:52.353Z,15.00
2022-11-02T08:00:19.049Z,15.00
2022-11-02T08:02:45.700Z,15.10
2022-11-02T08:05:12.422Z,15.00
2022-11-02T08:07:39.062Z,15.10
2022-11-02T08:10:06.225Z,15.20
2022-11-02T08:12:32.871Z,15.20
2022-11-02T08:15:02.312Z,15.10
2022-11-02T08:17:33.039Z,15.20
2022-11-02T08:19:59.681Z,15.30
2022-11-02T08:22:26.346Z,15.30
2022-11-02T08:24:52.978Z,15.30
2022-11-02T08:27:19.638Z,15.40
2022-11-02T08:29:46.330Z,15.40
2022-11-02T08:32:13.145Z,15.40
2022-11-02T08:34:39.785Z,15.50
2022-11-02T08:37:08.410Z,13.30
2022-11-02T08:39:35.119Z,15.60
2022-11-02T08:42:01.796Z,15.60
2022-11-02T08:44:28.420Z,15.60
2022-11-02T08:46:55.891Z,15.60
2022-11-02T08:49:22.534Z,15.70
2022-11-02T08:51:49.244Z,15.80
2022-11-02T08:54:15.972Z,15.70
2022-11-02T08:56:42.664Z,15.80
2022-11-02T08:59:09.410Z,15.70
2022-11-02T09:01:36.129Z,16.90
2022-11-02T09:04:02.915Z,16.00
2022-11-02T09:06:29.591Z,17.20
2022-11-02T09:08:58.057Z,16.00
2022-11-02T09:11:26.359Z,16.00
2022-11-02T09:13:56.949Z,16.10
2022-11-02T09:16:23.970Z,16.10
2022-11-02T09:18:50.632Z,16.20
2022-11-02T09:21:17.274Z,16.20
2022-11-02T09:23:44.611Z,16.20
2022-11-02T09:26:11.243Z,16.20
2022-11-02T09:28:37.860Z,16.10
2022-11-02T09:31:07.387Z,16.10
2022-11-02T09:33:37.353Z,16.10
2022-11-02T09:36:05.751Z,16.00
2022-11-02T09:38:32.681Z,16.20
2022-11-02T09:41:22.671Z,16.10
2022-11-02T09:44:07.476Z,16.30
2022-11-02T09:46:40.271Z,16.30
2022-11-02T09:49:23.269Z,16.30
2022-11-02T09:51:51.323Z,16.30
2022-11-02T09:54:33.621Z,17.00
2022-11-02T09:57:09.625Z,16.40
2022-11-02T09:59:36.397Z,16.40
2022-11-02T10:02:18.290Z,16.50
2022-11-02T10:04:45.068Z,16.50
2022-11-02T10:07:38.718Z,16.60
2022-11-02T10:10:26.755Z,16.60
2022-11-02T10:13:07.000Z,16.90
2022-11-02T10:15:41.005Z,16.70
2022-11-02T10:18:17.486Z,16.80
2022-11-02T10:20:52.497Z,16.70
2022-11-02T10:23:31.979Z,16.80
2022-11-02T10:26:00.641Z,16.90
2022-11-02T10:28:32.610Z,16.90
2022-11-02T10:31:01.252Z,17.00
2022-11-02T10:33:29.652Z,16.90
2022-11-02T10:36:19.352Z,16.90
2022-11-02T10:39:04.906Z,17.00
2022-11-02T10:41:46.449Z,17.10
2022-11-02T10:44:41.290Z,17.20
2022-11-02T10:47:26.872Z,17.40
2022-11-02T10:50:13.034Z,17.50
2022-11-02T10:52:43.326Z,17.50
2022-11-02T10:55:37.393Z,17.40
2022-11-02T10:58:06.351Z,17.50
2022-11-02T11:00:37.396Z,17.50
2022-11-02T11:03:10.622Z,17.50
2022-11-02T11:05:57.279Z,17.60
2022-11-02T11:08:46.756Z,17.70
2022-11-02T11:11:24.089Z,17.70
2022-11-02T11:19:55.778Z,17.20
2022-11-02T11:22:33.162Z,18.20
2022-11-02T11:25:28.054Z,18.30
2022-11-02T11:27:57.402Z,18.30
2022-11-02T11:30:58.402Z,18.30
2022-11-02T11:33:20.770Z,18.30
2022-11-02T11:35:50.144Z,18.10
2022-11-02T11:38:23.540Z,18.10
2022-11-02T11:40:53.988Z,18.20
2022-11-02T11:43:23.214Z,18.10
2022-11-02T11:46:06.844Z,18.00
2022-11-02T11:48:57.543Z,17.90
2022-11-02T11:51:30.637Z,18.00
2022-11-02T11:54:29.209Z,17.90
2022-11-02T11:57:20.227Z,18.10
2022-11-02T11:59:49.517Z,18.10
2022-11-02T12:02:48.100Z,17.50
2022-11-02T12:05:16.975Z,18.10
2022-11-02T12:08:12.935Z,18.20
2022-11-02T12:10:45.609Z,18.20
2022-11-02T12:13:44.531Z,18.20
2022-11-02T12:16:16.887Z,18.40
2022-11-02T12:19:08.191Z,18.50
2022-11-02T12:21:50.720Z,18.60
2022-11-02T12:24:35.953Z,18.60
2022-11-02T12:27:51.901Z,18.80
2022-11-02T12:30:21.693Z,18.90
2022-11-02T12:32:58.327Z,18.90
2022-11-02T12:35:34.002Z,19.00
2022-11-02T12:38:09.517Z,19.10
2022-11-02T12:40:54.888Z,19.00
2022-11-02T12:43:47.723Z,19.20
2022-11-02T12:46:45.925Z,19.20
2022-11-02T12:49:36.710Z,19.20
2022-11-02T12:52:09.300Z,19.30
2022-11-02T12:54:41.637Z,19.20
2022-11-02T12:57:14.007Z,19.40
2022-11-02T12:59:43.576Z,19.40
2022-11-02T13:02:44.710Z,19.30
2022-11-02T13:05:18.710Z,19.50
2022-11-02T13:08:07.409Z,19.40
2022-11-02T13:10:53.597Z,19.80
2022-11-02T13:13:33.575Z,19.20
2022-11-02T13:16:01.923Z,19.30
2022-11-02T13:18:47.314Z,19.20
2022-11-02T13:21:18.519Z,19.20
2022-11-02T13:23:51.452Z,19.20
2022-11-02T13:26:29.097Z,19.20
2022-11-02T13:29:17.448Z,19.00
2022-11-02T13:31:53.488Z,19.20
2022-11-02T13:34:33.758Z,19.10
2022-11-02T13:37:14.661Z,19.00
2022-11-02T13:39:47.701Z,19.20
2022-11-02T13:42:44.484Z,19.20
2022-11-02T13:45:29.783Z,19.20
2022-11-02T13:48:13.840Z,19.30
2022-11-02T13:50:44.520Z,19.30
2022-11-02T13:53:18.844Z,19.30
2022-11-02T13:55:54.169Z,19.30
2022-11-02T13:58:36.742Z,19.70
2022-11-02T14:01:07.857Z,19.80
2022-11-02T14:04:01.750Z,19.90
2022-11-02T14:06:33.327Z,20.00
2022-11-02T14:09:07.262Z,19.80
2022-11-02T14:11:39.493Z,19.80
2022-11-02T14:14:07.588Z,19.40
2022-11-02T14:16:43.110Z,18.90
2022-11-02T14:19:23.826Z,18.80
2022-11-02T14:21:59.648Z,18.70
2022-11-02T14:24:36.048Z,18.60
2022-11-02T14:27:04.831Z,18.60
2022-11-02T14:29:46.336Z,18.50
2022-11-02T14:32:23.784Z,18.60
2022-11-02T14:34:56.367Z,18.60
2022-11-02T14:37:49.653Z,18.60
2022-11-02T14:40:41.982Z,18.50
2022-11-02T14:43:30.229Z,18.40
2022-11-02T14:46:34.454Z,18.30
2022-11-02T14:49:04.116Z,18.20
2022-11-02T14:51:33.934Z,18.20
2022-11-02T14:54:08.024Z,17.90
2022-11-02T14:56:59.024Z,18.10
2022-11-02T14:59:30.953Z,18.00
2022-11-02T15:02:01.021Z,18.80
2022-11-02T15:04:30.154Z,17.90
2022-11-02T15:07:01.058Z,17.80
2022-11-02T15:09:57.480Z,17.90
2022-11-02T15:12:31.846Z,18.00
2022-11-02T15:15:04.657Z,18.40
2022-11-02T15:17:31.263Z,17.80
2022-11-02T15:19:57.837Z,17.70
2022-11-02T15:22:40.404Z,17.70
2022-11-02T15:25:19.839Z,17.60
2022-11-02T15:27:48.511Z,17.50
2022-11-02T15:30:21.423Z,17.20
2022-11-02T15:33:01.710Z,17.10
2022-11-02T15:35:35.756Z,17.20
2022-11-02T15:38:27.923Z,17.10
2022-11-02T15:41:06.127Z,17.10
2022-11-02T15:43:41.864Z,16.90
2022-11-02T15:46:31.207Z,16.90
2022-11-02T15:49:12.826Z,16.90
2022-11-02T15:51:58.017Z,16.90
2022-11-02T15:54:46.492Z,16.80
2022-11-02T15:57:35.781Z,16.80
2022-11-02T16:00:32.303Z,16.70
2022-11-02T16:03:05.256Z,16.30
2022-11-02T16:05:48.414Z,16.60
2022-11-02T16:08:24.523Z,16.50
2022-11-02T16:11:04.494Z,16.40
2022-11-02T16:13:48.708Z,16.40
2022-11-02T16:16:21.949Z,16.10
2022-11-02T16:18:52.841Z,16.30
2022-11-02T16:21:21.233Z,16.30
2022-11-02T16:23:51.802Z,16.10
2022-11-02T16:26:22.188Z,16.00
2022-11-02T16:28:54.083Z,15.90
2022-11-02T16:31:24.993Z,16.00
2022-11-02T16:33:56.318Z,16.00
2022-11-02T16:36:24.518Z,16.10
2022-11-02T16:38:54.876Z,16.00
2022-11-02T16:41:22.071Z,16.00
2022-11-02T16:43:49.964Z,16.00
2022-11-02T16:46:17.822Z,15.80
2022-11-02T16:49:29.329Z,15.90
2022-11-02T16:52:00.807Z,15.90
2022-11-02T16:54:41.294Z,15.80
2022-11-02T16:57:12.100Z,15.90
2022-11-02T16:59:54.498Z,15.70
2022-11-02T17:02:39.637Z,15.80
2022-11-02T17:05:15.099Z,15.80
2022-11-02T17:07:44.141Z,15.80
2022-11-02T17:10:20.606Z,15.70
2022-11-02T17:12:48.693Z,17.20
2022-11-02T17:15:19.098Z,15.80
2022-11-02T17:17:46.230Z,15.80
2022-11-02T17:20:15.883Z,15.80
2022-11-02T17:22:51.971Z,15.80
2022-11-02T17:25:32.512Z,15.80
2022-11-02T17:28:05.356Z,15.80
2022-11-02T17:30:35.145Z,15.70
2022-11-02T17:33:43.667Z,16.70
2022-11-02T17:36:10.464Z,15.80
2022-11-02T17:38:37.354Z,15.60
2022-11-02T17:41:24.142Z,15.60
2022-11-02T17:43:51.128Z,15.70
2022-11-02T17:46:17.753Z,15.60
2022-11-02T17:48:44.396Z,15.50
2022-11-02T17:51:15.248Z,15.60
2022-11-02T17:53:42.402Z,15.60
2022-11-02T17:56:10.795Z,15.60
2022-11-02T17:58:37.480Z,15.60
2022-11-02T18:01:05.161Z,15.60
2022-11-02T18:03:31.943Z,15.60
2022-11-02T18:06:00.282Z,15.50
2022-11-02T18:08:27.235Z,15.50
2022-11-02T18:10:53.854Z,15.40
2022-11-02T18:13:23.181Z,15.50
2022-11-02T18:15:50.358Z,15.50
2022-11-02T18:18:17.035Z,15.50
2022-11-02T18:20:43.748Z,15.60
2022-11-02T18:23:15.788Z,15.50
2022-11-02T18:25:42.758Z,15.50
2022-11-02T18:28:09.436Z,15.60
2022-11-02T18:30:36.100Z,15.60
2022-11-02T18:33:02.857Z,15.50
2022-11-02T18:35:29.601Z,15.50
2022-11-02T18:37:56.523Z,15.50
2022-11-02T18:40:23.227Z,15.50
2022-11-02T18:42:50.022Z,16.20
2022-11-02T18:45:16.797Z,15.60
2022-11-02T18:47:43.601Z,15.60
2022-11-02T18:50:12.532Z,15.90
2022-11-02T18:52:40.288Z,15.60
2022-11-02T18:55:07.507Z,15.50
2022-11-02T18:57:34.174Z,15.60
2022-11-02T19:00:02.694Z,15.60
2022-11-02T19:02:29.836Z,15.60
2022-11-02T19:04:56.819Z,15.60
2022-11-02T19:07:42.007Z,15.60
2022-11-02T19:10:09.671Z,15.60
2022-11-02T19:12:36.331Z,15.60
2022-11-02T19:15:03.136Z,15.40
2022-11-02T19:17:30.186Z,15.60
2022-11-02T19:19:56.997Z,15.50
2022-11-02T19:22:25.755Z,15.50
2022-11-02T19:24:52.647Z,15.40
2022-11-02T19:27:24.303Z,15.50
2022-11-02T19:29:51.875Z,14.60
2022-11-02T19:32:19.175Z,15.50
2022-11-02T19:34:46.231Z,15.40
2022-11-02T19:37:13.186Z,15.30
2022-11-02T19:39:39.889Z,15.40
2022-11-02T19:42:07.382Z,15.30
2022-11-02T19:44:39.687Z,15.40
2022-11-02T19:47:08.978Z,15.40
2022-11-02T19:49:35.584Z,15.30
2022-11-02T19:52:02.308Z,15.40
2022-11-02T19:54:28.994Z,15.40
2022-11-02T19:56:55.623Z,16.10
2022-11-02T19:59:22.516Z,15.30
2022-11-02T20:01:50.473Z,15.30
2022-11-02T20:04:17.686Z,15.30
2022-11-02T20:06:44.773Z,15.40
2022-11-02T20:09:17.459Z,15.40
2022-11-02T20:11:45.425Z,15.50
2022-11-02T20:14:13.686Z,15.40
2022-11-02T20:16:40.873Z,15.40
2022-11-02T20:19:08.888Z,15.20
2022-11-02T20:21:41.675Z,15.40
2022-11-02T20:24:10.207Z,15.30
2022-11-02T20:26:38.380Z,15.30
2022-11-02T20:29:06.601Z,15.10
2022-11-02T20:31:38.593Z,15.30
2022-11-02T20:34:07.452Z,15.30
2022-11-02T20:36:34.788Z,15.30
2022-11-02T20:39:04.529Z,15.20
2022-11-02T20:41:31.256Z,15.30
2022-11-02T20:43:57.880Z,16.50
2022-11-02T20:46:45.260Z,15.30
2022-11-02T20:49:21.873Z,15.20
2022-11-02T20:51:56.131Z,15.20
2022-11-02T20:54:22.896Z,15.30
2022-11-02T20:56:50.306Z,15.10
2022-11-02T20:59:17.459Z,15.30
2022-11-02T21:01:44.527Z,15.20
2022-11-02T21:04:16.865Z,15.20
2022-11-02T21:06:46.335Z,15.20
2022-11-02T21:09:12.981Z,15.20
2022-11-02T21:11:58.455Z,15.20
2022-11-02T21:14:25.200Z,15.20
2022-11-02T21:16:51.848Z,15.20
2022-11-02T21:19:18.478Z,15.20
2022-11-02T21:21:45.354Z,15.20
2022-11-02T21:24:12.291Z,15.10
2022-11-02T21:26:38.944Z,15.30
2022-11-02T21:29:05.604Z,16.10
2022-11-02T21:31:32.276Z,15.30
2022-11-02T21:33:58.948Z,15.20
2022-11-02T21:36:25.623Z,15.30
2022-11-02T21:38:52.312Z,15.40
2022-11-02T21:41:21.483Z,15.20
2022-11-02T21:43:51.753Z,15.20
2022-11-02T21:46:19.620Z,15.30
2022-11-02T21:48:46.602Z,15.20
2022-11-02T21:51:16.355Z,15.10
2022-11-02T21:53:44.895Z,15.20
2022-11-02T21:56:14.530Z,15.30
2022-11-02T21:58:44.845Z,15.20
2022-11-02T22:01:44.405Z,15.20
2022-11-02T22:04:23.469Z,15.30
2022-11-02T22:06:50.892Z,15.30
2022-11-02T22:09:18.385Z,15.20
2022-11-02T22:11:45.237Z,15.20
2022-11-02T22:14:12.879Z,15.00
2022-11-02T22:16:41.812Z,15.10
2022-11-02T22:19:10.860Z,15.20
2022-11-02T22:21:42.591Z,15.20
2022-11-02T22:24:09.995Z,15.20
2022-11-02T22:26:38.085Z,15.30
2022-11-02T22:29:05.831Z,15.10
2022-11-02T22:31:40.313Z,15.10
2022-11-02T22:34:10.255Z,15.00
2022-11-02T22:36:39.020Z,15.10
2022-11-02T22:39:07.781Z,15.90
2022-11-02T22:41:39.597Z,15.00
2022-11-02T22:44:10.509Z,15.00
2022-11-02T22:46:42.698Z,15.00
2022-11-02T22:49:11.308Z,14.90
2022-11-02T22:51:40.311Z,15.00
2022-11-02T22:54:09.188Z,14.90
2022-11-02T22:56:36.293Z,14.90
2022-11-02T22:59:03.367Z,14.80
2022-11-02T23:01:31.419Z,14.90
2022-11-02T23:03:58.647Z,14.90
2022-11-02T23:06:26.229Z,14.80
2022-11-02T23:08:56.150Z,14.80
2022-11-02T23:11:25.632Z,14.80
2022-11-02T23:14:04.671Z,14.80
2022-11-02T23:16:32.825Z,14.80
2022-11-02T23:19:23.492Z,14.80
2022-11-02T23:22:25.192Z,14.80
2022-11-02T23:25:11.935Z,15.10
2022-11-02T23:28:05.517Z,14.80
2022-11-02T23:30:54.982Z,14.80
2022-11-02T23:33:24.061Z,14.70
2022-11-02T23:36:10.340Z,14.80
2022-11-02T23:39:00.054Z,14.50
2022-11-02T23:41:27.410Z,14.70
2022-11-02T23:44:11.588Z,14.70
2022-11-02T23:46:46.513Z,14.70
2022-11-02T23:49:13.580Z,14.70
2022-11-02T23:51:59.113Z,14.70
2022-11-02T23:54:44.548Z,14.60
2022-11-02T23:57:11.502Z,14.70
2022-11-02T23:59:38.186Z,14.80
